sensor_id;sensor_type;location;lat;lon;timestamp;temperature;humidity
1778;DHT22;71547;50.146;8.174;2023-07-31T00:01:32;17.00;99.90
1778;DHT22;71547;50.146;8.174;2023-07-31T00:04:00;16.90;99.90
1778;DHT22;71547;50.146;8.174;2023-07-31T00:06:28;16.90;99.90
1778;DHT22;71547;50.146;8.174;2023-07-31T00:08:56;16.90;99.90
1778;DHT22;71547;50.146;8.174;2023-07-31T00:11:25;16.70;99.90
1778;DHT22;71547;50.146;8.174;2023-07-31T00:13:53;16.50;99.90
1778;DHT22;71547;50.146;8.174;2023-07-31T00:16:21;16.50;99.90
1778;DHT22;71547;50.146;8.174;2023-07-31T00:18:48;16.60;99.90
1778;DHT22;71547;50.146;8.174;2023-07-31T00:21:16;16.60;99.90
1778;DHT22;71547;50.146;8.174;2023-07-31T00:23:43;16.50;99.90
1778;DHT22;71547;50.146;8.174;2023-07-31T00:26:10;16.60;99.90
1778;DHT22;71547;50.146;8.174;2023-07-31T00:28:39;16.60;99.90
1778;DHT22;71547;50.146;8.174;2023-07-31T00:31:06;16.60;99.90
1778;DHT22;71547;50.146;8.174;2023-07-31T00:33:35;16.60;99.90
1778;DHT22;71547;50.146;8.174;2023-07-31T00:36:03;16.60;99.90
1778;DHT22;71547;50.146;8.174;2023-07-31T00:38:31;16.60;99.90
1778;DHT22;71547;50.146;8.174;2023-07-31T00:40:58;16.50;99.90
1778;DHT22;71547;50.146;8.174;2023-07-31T00:43:26;16.50;99.90
1778;DHT22;71547;50.146;8.174;2023-07-31T00:45:55;16.70;99.90
1778;DHT22;71547;50.146;8.174;2023-07-31T00:48:23;16.60;99.90
1778;DHT22;71547;50.146;8.174;2023-07-31T00:50:51;16.60;99.90
1778;DHT22;71547;50.146;8.174;2023-07-31T00:53:18;16.60;99.90
1778;DHT22;71547;50.146;8.174;2023-07-31T00:55:46;16.60;99.90
1778;DHT22;71547;50.146;8.174;2023-07-31T00:58:16;16.70;99.90
1778;DHT22;71547;50.146;8.174;2023-07-31T01:00:44;16.70;99.90
1778;DHT22;71547;50.146;8.174;2023-07-31T01:03:15;16.70;99.90
1778;DHT22;71547;50.146;8.174;2023-07-31T01:05:52;16.70;99.90
1778;DHT22;71547;50.146;8.174;2023-07-31T01:08:31;16.70;99.90
1778;DHT22;71547;50.146;8.174;2023-07-31T01:11:07;16.80;99.90
1778;DHT22;71547;50.146;8.174;2023-07-31T01:13:40;16.80;99.90
1778;DHT22;71547;50.146;8.174;2023-07-31T01:16:07;16.80;99.90
1778;DHT22;71547;50.146;8.174;2023-07-31T01:18:36;16.90;99.90
1778;DHT22;71547;50.146;8.174;2023-07-31T01:21:14;16.80;99.90
1778;DHT22;71547;50.146;8.174;2023-07-31T01:24:11;16.80;99.90
1778;DHT22;71547;50.146;8.174;2023-07-31T01:26:52;16.90;99.90
1778;DHT22;71547;50.146;8.174;2023-07-31T01:29:29;17.00;99.90
1778;DHT22;71547;50.146;8.174;2023-07-31T01:32:02;16.90;99.90
1778;DHT22;71547;50.146;8.174;2023-07-31T01:34:31;16.90;99.90
1778;DHT22;71547;50.146;8.174;2023-07-31T01:37:00;16.90;99.90
1778;DHT22;71547;50.146;8.174;2023-07-31T01:39:27;16.80;99.90
1778;DHT22;71547;50.146;8.174;2023-07-31T01:41:57;16.80;99.90
1778;DHT22;71547;50.146;8.174;2023-07-31T01:44:24;16.80;99.90
1778;DHT22;71547;50.146;8.174;2023-07-31T01:46:52;16.80;99.90
1778;DHT22;71547;50.146;8.174;2023-07-31T01:49:20;16.80;99.90
1778;DHT22;71547;50.146;8.174;2023-07-31T01:51:48;16.80;99.90
1778;DHT22;71547;50.146;8.174;2023-07-31T01:54:16;16.90;99.90
1778;DHT22;71547;50.146;8.174;2023-07-31T01:56:44;16.90;99.90
1778;DHT22;71547;50.146;8.174;2023-07-31T01:59:13;16.90;99.90
1778;DHT22;71547;50.146;8.174;2023-07-31T02:01:40;16.90;99.90
1778;DHT22;71547;50.146;8.174;2023-07-31T02:04:08;16.90;99.90
1778;DHT22;71547;50.146;8.174;2023-07-31T02:06:53;16.90;99.90
1778;DHT22;71547;50.146;8.174;2023-07-31T02:09:21;16.90;99.90
1778;DHT22;71547;50.146;8.174;2023-07-31T02:11:49;17.00;99.90
1778;DHT22;71547;50.146;8.174;2023-07-31T02:14:22;16.90;99.90
1778;DHT22;71547;50.146;8.174;2023-07-31T02:16:51;16.90;99.90
1778;DHT22;71547;50.146;8.174;2023-07-31T02:19:18;16.80;99.90
1778;DHT22;71547;50.146;8.174;2023-07-31T02:21:46;16.90;99.90
1778;DHT22;71547;50.146;8.174;2023-07-31T02:24:14;16.80;99.90
1778;DHT22;71547;50.146;8.174;2023-07-31T02:26:41;16.80;99.90
1778;DHT22;71547;50.146;8.174;2023-07-31T02:29:09;16.80;99.90
1778;DHT22;71547;50.146;8.174;2023-07-31T02:31:38;16.90;99.90
1778;DHT22;71547;50.146;8.174;2023-07-31T02:34:06;16.80;99.90
1778;DHT22;71547;50.146;8.174;2023-07-31T02:36:34;16.70;99.90
1778;DHT22;71547;50.146;8.174;2023-07-31T02:39:02;16.80;99.90
1778;DHT22;71547;50.146;8.174;2023-07-31T02:41:30;16.80;99.90
1778;DHT22;71547;50.146;8.174;2023-07-31T02:43:58;16.80;99.90
1778;DHT22;71547;50.146;8.174;2023-07-31T02:46:26;16.80;99.90
1778;DHT22;71547;50.146;8.174;2023-07-31T02:48:55;16.70;99.90
1778;DHT22;71547;50.146;8.174;2023-07-31T02:51:23;16.70;99.90
1778;DHT22;71547;50.146;8.174;2023-07-31T02:53:51;16.70;99.90
1778;DHT22;71547;50.146;8.174;2023-07-31T02:56:19;16.70;99.90
1778;DHT22;71547;50.146;8.174;2023-07-31T02:58:48;16.70;99.90
1778;DHT22;71547;50.146;8.174;2023-07-31T03:01:16;16.80;99.90
1778;DHT22;71547;50.146;8.174;2023-07-31T03:03:43;16.70;99.90
1778;DHT22;71547;50.146;8.174;2023-07-31T03:06:12;16.70;99.90
1778;DHT22;71547;50.146;8.174;2023-07-31T03:08:40;16.60;99.90
1778;DHT22;71547;50.146;8.174;2023-07-31T03:11:07;16.70;99.90
1778;DHT22;71547;50.146;8.174;2023-07-31T03:13:34;16.70;99.90
1778;DHT22;71547;50.146;8.174;2023-07-31T03:16:02;16.70;99.90
1778;DHT22;71547;50.146;8.174;2023-07-31T03:18:30;16.70;99.90
1778;DHT22;71547;50.146;8.174;2023-07-31T03:20:58;16.60;99.90
1778;DHT22;71547;50.146;8.174;2023-07-31T03:23:27;16.60;99.90
1778;DHT22;71547;50.146;8.174;2023-07-31T03:25:56;16.60;99.90
1778;DHT22;71547;50.146;8.174;2023-07-31T03:28:24;16.70;99.90
1778;DHT22;71547;50.146;8.174;2023-07-31T03:30:53;16.60;99.90
1778;DHT22;71547;50.146;8.174;2023-07-31T03:33:21;16.60;99.90
1778;DHT22;71547;50.146;8.174;2023-07-31T03:35:49;16.70;99.90
1778;DHT22;71547;50.146;8.174;2023-07-31T03:38:17;16.60;99.90
1778;DHT22;71547;50.146;8.174;2023-07-31T03:40:46;16.60;99.90
1778;DHT22;71547;50.146;8.174;2023-07-31T03:43:16;16.60;99.90
1778;DHT22;71547;50.146;8.174;2023-07-31T03:45:43;16.60;99.90
1778;DHT22;71547;50.146;8.174;2023-07-31T03:48:11;16.50;99.90
1778;DHT22;71547;50.146;8.174;2023-07-31T03:50:38;16.60;99.90
1778;DHT22;71547;50.146;8.174;2023-07-31T03:53:06;16.50;99.90
1778;DHT22;71547;50.146;8.174;2023-07-31T03:55:34;16.50;99.90
1778;DHT22;71547;50.146;8.174;2023-07-31T03:58:04;16.50;99.90
1778;DHT22;71547;50.146;8.174;2023-07-31T04:00:32;16.50;99.90
1778;DHT22;71547;50.146;8.174;2023-07-31T04:02:59;16.50;99.90
1778;DHT22;71547;50.146;8.174;2023-07-31T04:05:29;16.40;99.90
1778;DHT22;71547;50.146;8.174;2023-07-31T04:07:57;16.40;99.90
1778;DHT22;71547;50.146;8.174;2023-07-31T04:10:25;16.50;99.90
1778;DHT22;71547;50.146;8.174;2023-07-31T04:12:55;16.40;99.90
1778;DHT22;71547;50.146;8.174;2023-07-31T04:15:25;16.40;99.90
1778;DHT22;71547;50.146;8.174;2023-07-31T04:17:53;16.40;99.90
1778;DHT22;71547;50.146;8.174;2023-07-31T04:20:21;16.50;99.90
1778;DHT22;71547;50.146;8.174;2023-07-31T04:22:51;16.40;99.90
1778;DHT22;71547;50.146;8.174;2023-07-31T04:25:19;16.40;99.90
1778;DHT22;71547;50.146;8.174;2023-07-31T04:27:47;16.40;99.90
1778;DHT22;71547;50.146;8.174;2023-07-31T04:30:14;16.40;99.90
1778;DHT22;71547;50.146;8.174;2023-07-31T04:32:45;16.40;99.90
1778;DHT22;71547;50.146;8.174;2023-07-31T04:35:13;16.50;99.90
1778;DHT22;71547;50.146;8.174;2023-07-31T04:37:41;16.50;99.90
1778;DHT22;71547;50.146;8.174;2023-07-31T04:40:09;16.50;99.90
1778;DHT22;71547;50.146;8.174;2023-07-31T04:42:37;16.50;99.90
1778;DHT22;71547;50.146;8.174;2023-07-31T04:45:05;16.50;99.90
1778;DHT22;71547;50.146;8.174;2023-07-31T04:47:34;16.50;99.90
1778;DHT22;71547;50.146;8.174;2023-07-31T04:50:05;16.40;99.90
1778;DHT22;71547;50.146;8.174;2023-07-31T04:52:33;16.40;99.90
1778;DHT22;71547;50.146;8.174;2023-07-31T04:55:01;16.50;99.90
1778;DHT22;71547;50.146;8.174;2023-07-31T04:57:30;16.50;99.90
1778;DHT22;71547;50.146;8.174;2023-07-31T04:59:58;16.50;99.90
1778;DHT22;71547;50.146;8.174;2023-07-31T05:02:26;16.50;99.90
1778;DHT22;71547;50.146;8.174;2023-07-31T05:04:54;16.50;99.90
1778;DHT22;71547;50.146;8.174;2023-07-31T05:07:23;16.50;99.90
1778;DHT22;71547;50.146;8.174;2023-07-31T05:09:51;16.40;99.90
1778;DHT22;71547;50.146;8.174;2023-07-31T05:12:19;16.50;99.90
1778;DHT22;71547;50.146;8.174;2023-07-31T05:14:46;16.50;99.90
1778;DHT22;71547;50.146;8.174;2023-07-31T05:17:14;16.40;99.90
1778;DHT22;71547;50.146;8.174;2023-07-31T05:19:42;16.50;99.90
1778;DHT22;71547;50.146;8.174;2023-07-31T05:22:09;16.40;99.90
1778;DHT22;71547;50.146;8.174;2023-07-31T05:24:38;16.40;99.90
1778;DHT22;71547;50.146;8.174;2023-07-31T05:27:06;16.40;99.90
1778;DHT22;71547;50.146;8.174;2023-07-31T05:29:34;16.40;99.90
1778;DHT22;71547;50.146;8.174;2023-07-31T05:32:03;16.40;99.90
1778;DHT22;71547;50.146;8.174;2023-07-31T05:34:31;16.40;99.90
1778;DHT22;71547;50.146;8.174;2023-07-31T05:36:59;16.30;99.90
1778;DHT22;71547;50.146;8.174;2023-07-31T05:39:27;16.30;99.90
1778;DHT22;71547;50.146;8.174;2023-07-31T05:41:57;16.30;99.90
1778;DHT22;71547;50.146;8.174;2023-07-31T05:44:25;16.40;99.90
1778;DHT22;71547;50.146;8.174;2023-07-31T05:46:53;16.40;99.90
1778;DHT22;71547;50.146;8.174;2023-07-31T05:49:21;16.40;99.90
1778;DHT22;71547;50.146;8.174;2023-07-31T05:51:48;16.30;99.90
1778;DHT22;71547;50.146;8.174;2023-07-31T05:54:16;16.40;99.90
1778;DHT22;71547;50.146;8.174;2023-07-31T05:56:44;16.40;99.90
1778;DHT22;71547;50.146;8.174;2023-07-31T05:59:13;16.40;99.90
1778;DHT22;71547;50.146;8.174;2023-07-31T06:01:40;16.40;99.90
1778;DHT22;71547;50.146;8.174;2023-07-31T06:04:08;16.40;99.90
1778;DHT22;71547;50.146;8.174;2023-07-31T06:06:36;16.40;99.90
1778;DHT22;71547;50.146;8.174;2023-07-31T06:09:04;16.50;99.90
1778;DHT22;71547;50.146;8.174;2023-07-31T06:11:49;16.50;99.90
1778;DHT22;71547;50.146;8.174;2023-07-31T06:14:19;16.60;99.90
1778;DHT22;71547;50.146;8.174;2023-07-31T06:16:47;16.50;99.90
1778;DHT22;71547;50.146;8.174;2023-07-31T06:19:15;16.50;99.90
1778;DHT22;71547;50.146;8.174;2023-07-31T06:21:43;16.60;99.90
1778;DHT22;71547;50.146;8.174;2023-07-31T06:24:11;16.60;99.90
1778;DHT22;71547;50.146;8.174;2023-07-31T06:26:40;16.60;99.90
1778;DHT22;71547;50.146;8.174;2023-07-31T06:29:07;16.60;99.90
1778;DHT22;71547;50.146;8.174;2023-07-31T06:31:36;16.60;99.90
1778;DHT22;71547;50.146;8.174;2023-07-31T06:34:04;16.50;99.90
1778;DHT22;71547;50.146;8.174;2023-07-31T06:36:32;16.60;99.90
1778;DHT22;71547;50.146;8.174;2023-07-31T06:39:00;16.60;99.90
1778;DHT22;71547;50.146;8.174;2023-07-31T06:41:28;16.80;99.90
1778;DHT22;71547;50.146;8.174;2023-07-31T06:43:55;17.00;99.90
1778;DHT22;71547;50.146;8.174;2023-07-31T06:46:23;17.00;99.90
1778;DHT22;71547;50.146;8.174;2023-07-31T06:48:52;17.00;99.90
1778;DHT22;71547;50.146;8.174;2023-07-31T06:51:20;16.90;99.90
1778;DHT22;71547;50.146;8.174;2023-07-31T06:53:47;16.90;99.90
1778;DHT22;71547;50.146;8.174;2023-07-31T06:56:15;17.00;99.90
1778;DHT22;71547;50.146;8.174;2023-07-31T06:58:43;17.20;99.90
1778;DHT22;71547;50.146;8.174;2023-07-31T07:01:10;17.40;99.90
1778;DHT22;71547;50.146;8.174;2023-07-31T07:03:37;17.40;99.90
1778;DHT22;71547;50.146;8.174;2023-07-31T07:06:05;17.50;99.90
1778;DHT22;71547;50.146;8.174;2023-07-31T07:08:34;17.60;99.90
1778;DHT22;71547;50.146;8.174;2023-07-31T07:11:02;17.50;99.90
1778;DHT22;71547;50.146;8.174;2023-07-31T07:13:34;17.70;99.90
1778;DHT22;71547;50.146;8.174;2023-07-31T07:16:05;17.80;99.90
1778;DHT22;71547;50.146;8.174;2023-07-31T07:18:33;17.90;99.90
1778;DHT22;71547;50.146;8.174;2023-07-31T07:21:09;17.80;99.90
1778;DHT22;71547;50.146;8.174;2023-07-31T07:23:36;17.70;99.90
1778;DHT22;71547;50.146;8.174;2023-07-31T07:26:05;17.70;99.90
1778;DHT22;71547;50.146;8.174;2023-07-31T07:28:33;17.60;99.90
1778;DHT22;71547;50.146;8.174;2023-07-31T07:31:01;17.60;99.90
1778;DHT22;71547;50.146;8.174;2023-07-31T07:33:29;17.70;99.90
1778;DHT22;71547;50.146;8.174;2023-07-31T07:36:00;17.70;99.90
1778;DHT22;71547;50.146;8.174;2023-07-31T07:38:30;17.50;99.90
1778;DHT22;71547;50.146;8.174;2023-07-31T07:40:58;17.60;99.90
1778;DHT22;71547;50.146;8.174;2023-07-31T07:43:26;17.40;99.90
1778;DHT22;71547;50.146;8.174;2023-07-31T07:45:54;17.40;99.90
1778;DHT22;71547;50.146;8.174;2023-07-31T07:48:22;17.30;99.90
1778;DHT22;71547;50.146;8.174;2023-07-31T07:50:50;17.40;99.90
1778;DHT22;71547;50.146;8.174;2023-07-31T07:53:34;17.40;99.90
1778;DHT22;71547;50.146;8.174;2023-07-31T07:56:02;17.30;99.90
1778;DHT22;71547;50.146;8.174;2023-07-31T07:58:30;17.30;99.90
1778;DHT22;71547;50.146;8.174;2023-07-31T08:00:58;17.40;99.90
1778;DHT22;71547;50.146;8.174;2023-07-31T08:03:26;17.50;99.90
1778;DHT22;71547;50.146;8.174;2023-07-31T08:05:58;17.50;99.90
1778;DHT22;71547;50.146;8.174;2023-07-31T08:08:26;17.40;99.90
1778;DHT22;71547;50.146;8.174;2023-07-31T08:10:56;17.40;99.90
1778;DHT22;71547;50.146;8.174;2023-07-31T08:13:24;17.40;99.90
1778;DHT22;71547;50.146;8.174;2023-07-31T08:15:51;17.50;99.90
1778;DHT22;71547;50.146;8.174;2023-07-31T08:18:19;17.50;99.90
1778;DHT22;71547;50.146;8.174;2023-07-31T08:20:47;17.50;99.90
1778;DHT22;71547;50.146;8.174;2023-07-31T08:23:15;17.50;99.90
1778;DHT22;71547;50.146;8.174;2023-07-31T08:25:43;17.50;99.90
1778;DHT22;71547;50.146;8.174;2023-07-31T08:28:12;17.80;99.90
1778;DHT22;71547;50.146;8.174;2023-07-31T08:30:40;17.80;99.90
1778;DHT22;71547;50.146;8.174;2023-07-31T08:33:09;17.80;99.90
1778;DHT22;71547;50.146;8.174;2023-07-31T08:35:39;17.90;99.90
1778;DHT22;71547;50.146;8.174;2023-07-31T08:38:07;17.90;99.90
1778;DHT22;71547;50.146;8.174;2023-07-31T08:40:37;17.90;99.90
1778;DHT22;71547;50.146;8.174;2023-07-31T08:43:08;18.00;99.90
1778;DHT22;71547;50.146;8.174;2023-07-31T08:45:38;18.00;99.90
1778;DHT22;71547;50.146;8.174;2023-07-31T08:48:08;18.20;99.90
1778;DHT22;71547;50.146;8.174;2023-07-31T08:50:37;18.20;99.90
1778;DHT22;71547;50.146;8.174;2023-07-31T08:53:05;18.20;99.90
1778;DHT22;71547;50.146;8.174;2023-07-31T08:55:34;18.20;99.90
1778;DHT22;71547;50.146;8.174;2023-07-31T08:58:03;18.20;99.90
1778;DHT22;71547;50.146;8.174;2023-07-31T09:00:32;18.10;99.90
1778;DHT22;71547;50.146;8.174;2023-07-31T09:03:02;18.20;99.90
1778;DHT22;71547;50.146;8.174;2023-07-31T09:05:36;18.20;99.90
1778;DHT22;71547;50.146;8.174;2023-07-31T09:08:04;18.20;99.90
1778;DHT22;71547;50.146;8.174;2023-07-31T09:10:32;18.30;99.90
1778;DHT22;71547;50.146;8.174;2023-07-31T09:13:00;18.30;99.90
1778;DHT22;71547;50.146;8.174;2023-07-31T09:15:29;18.30;99.90
1778;DHT22;71547;50.146;8.174;2023-07-31T09:18:08;18.20;99.90
1778;DHT22;71547;50.146;8.174;2023-07-31T09:20:36;18.10;99.90
1778;DHT22;71547;50.146;8.174;2023-07-31T09:23:09;18.10;99.90
1778;DHT22;71547;50.146;8.174;2023-07-31T09:25:39;18.00;99.90
1778;DHT22;71547;50.146;8.174;2023-07-31T09:28:08;18.00;99.90
1778;DHT22;71547;50.146;8.174;2023-07-31T09:30:47;17.80;99.90
1778;DHT22;71547;50.146;8.174;2023-07-31T09:33:18;17.90;99.90
1778;DHT22;71547;50.146;8.174;2023-07-31T09:35:46;18.10;99.90
1778;DHT22;71547;50.146;8.174;2023-07-31T09:38:16;18.30;99.90
1778;DHT22;71547;50.146;8.174;2023-07-31T09:40:47;18.40;99.90
1778;DHT22;71547;50.146;8.174;2023-07-31T09:43:18;18.80;99.90
1778;DHT22;71547;50.146;8.174;2023-07-31T09:45:54;19.20;99.90
1778;DHT22;71547;50.146;8.174;2023-07-31T09:48:25;19.40;99.90
1778;DHT22;71547;50.146;8.174;2023-07-31T09:50:54;19.20;99.90
1778;DHT22;71547;50.146;8.174;2023-07-31T09:53:28;19.30;99.90
1778;DHT22;71547;50.146;8.174;2023-07-31T09:55:59;19.30;99.90
1778;DHT22;71547;50.146;8.174;2023-07-31T09:58:29;19.30;99.90
1778;DHT22;71547;50.146;8.174;2023-07-31T10:00:59;19.10;99.90
1778;DHT22;71547;50.146;8.174;2023-07-31T10:03:30;19.00;99.90
1778;DHT22;71547;50.146;8.174;2023-07-31T10:06:00;19.00;99.90
1778;DHT22;71547;50.146;8.174;2023-07-31T10:08:30;18.90;99.90
1778;DHT22;71547;50.146;8.174;2023-07-31T10:11:04;19.10;99.90
1778;DHT22;71547;50.146;8.174;2023-07-31T10:13:32;19.10;99.90
1778;DHT22;71547;50.146;8.174;2023-07-31T10:16:01;19.30;99.90
1778;DHT22;71547;50.146;8.174;2023-07-31T10:18:31;19.50;99.90
1778;DHT22;71547;50.146;8.174;2023-07-31T10:20:59;19.40;99.90
1778;DHT22;71547;50.146;8.174;2023-07-31T10:23:27;19.60;99.90
1778;DHT22;71547;50.146;8.174;2023-07-31T10:25:57;19.70;99.90
1778;DHT22;71547;50.146;8.174;2023-07-31T10:28:26;19.80;99.90
1778;DHT22;71547;50.146;8.174;2023-07-31T10:30:57;20.30;99.90
1778;DHT22;71547;50.146;8.174;2023-07-31T10:33:25;20.80;99.90
1778;DHT22;71547;50.146;8.174;2023-07-31T10:36:19;20.80;99.90
1778;DHT22;71547;50.146;8.174;2023-07-31T10:38:49;20.70;99.90
1778;DHT22;71547;50.146;8.174;2023-07-31T10:41:18;20.70;99.90
1778;DHT22;71547;50.146;8.174;2023-07-31T10:43:46;20.80;99.90
1778;DHT22;71547;50.146;8.174;2023-07-31T10:46:14;20.70;99.90
1778;DHT22;71547;50.146;8.174;2023-07-31T10:48:42;20.80;99.90
1778;DHT22;71547;50.146;8.174;2023-07-31T10:51:13;20.60;99.90
1778;DHT22;71547;50.146;8.174;2023-07-31T10:53:46;20.60;99.90
1778;DHT22;71547;50.146;8.174;2023-07-31T10:56:14;20.60;99.90
1778;DHT22;71547;50.146;8.174;2023-07-31T10:58:46;20.40;99.90
1778;DHT22;71547;50.146;8.174;2023-07-31T11:01:51;20.60;99.90
1778;DHT22;71547;50.146;8.174;2023-07-31T11:04:26;20.60;99.90
1778;DHT22;71547;50.146;8.174;2023-07-31T11:06:58;20.80;99.90
1778;DHT22;71547;50.146;8.174;2023-07-31T11:09:30;21.10;99.90
1778;DHT22;71547;50.146;8.174;2023-07-31T11:12:01;21.00;99.90
1778;DHT22;71547;50.146;8.174;2023-07-31T11:14:29;20.70;99.90
1778;DHT22;71547;50.146;8.174;2023-07-31T11:16:57;20.50;99.90
1778;DHT22;71547;50.146;8.174;2023-07-31T11:19:25;20.40;99.90
1778;DHT22;71547;50.146;8.174;2023-07-31T11:21:53;20.60;99.90
1778;DHT22;71547;50.146;8.174;2023-07-31T11:24:21;21.10;99.90
1778;DHT22;71547;50.146;8.174;2023-07-31T11:26:52;21.00;99.90
1778;DHT22;71547;50.146;8.174;2023-07-31T11:29:20;21.20;99.90
1778;DHT22;71547;50.146;8.174;2023-07-31T11:31:48;21.30;99.90
1778;DHT22;71547;50.146;8.174;2023-07-31T11:34:17;21.00;99.90
1778;DHT22;71547;50.146;8.174;2023-07-31T11:36:57;20.80;99.90
1778;DHT22;71547;50.146;8.174;2023-07-31T11:39:25;20.80;99.90
1778;DHT22;71547;50.146;8.174;2023-07-31T11:42:00;20.90;99.90
1778;DHT22;71547;50.146;8.174;2023-07-31T11:44:37;20.90;99.90
1778;DHT22;71547;50.146;8.174;2023-07-31T11:47:05;20.90;99.90
1778;DHT22;71547;50.146;8.174;2023-07-31T11:49:36;20.70;99.90
1778;DHT22;71547;50.146;8.174;2023-07-31T11:52:04;20.50;99.90
1778;DHT22;71547;50.146;8.174;2023-07-31T11:54:33;20.40;99.90
1778;DHT22;71547;50.146;8.174;2023-07-31T11:57:03;20.30;99.90
1778;DHT22;71547;50.146;8.174;2023-07-31T11:59:32;20.40;99.90
1778;DHT22;71547;50.146;8.174;2023-07-31T12:02:00;20.40;99.90
1778;DHT22;71547;50.146;8.174;2023-07-31T12:04:28;20.50;99.90
1778;DHT22;71547;50.146;8.174;2023-07-31T12:06:57;20.40;99.90
1778;DHT22;71547;50.146;8.174;2023-07-31T12:09:27;20.30;99.90
1778;DHT22;71547;50.146;8.174;2023-07-31T12:11:55;20.10;99.90
1778;DHT22;71547;50.146;8.174;2023-07-31T12:14:26;20.20;99.90
1778;DHT22;71547;50.146;8.174;2023-07-31T12:16:59;20.20;99.90
1778;DHT22;71547;50.146;8.174;2023-07-31T12:19:28;20.10;99.90
1778;DHT22;71547;50.146;8.174;2023-07-31T12:21:58;20.10;99.90
1778;DHT22;71547;50.146;8.174;2023-07-31T12:24:27;20.10;99.90
1778;DHT22;71547;50.146;8.174;2023-07-31T12:26:55;20.30;99.90
1778;DHT22;71547;50.146;8.174;2023-07-31T12:29:34;20.80;99.90
1778;DHT22;71547;50.146;8.174;2023-07-31T12:32:20;21.20;99.90
1778;DHT22;71547;50.146;8.174;2023-07-31T12:34:49;21.80;99.90
1778;DHT22;71547;50.146;8.174;2023-07-31T12:37:17;22.20;99.90
1778;DHT22;71547;50.146;8.174;2023-07-31T12:39:45;22.40;99.10
1778;DHT22;71547;50.146;8.174;2023-07-31T12:42:12;22.20;99.70
1778;DHT22;71547;50.146;8.174;2023-07-31T12:44:41;22.30;99.00
1778;DHT22;71547;50.146;8.174;2023-07-31T12:47:08;22.20;99.50
1778;DHT22;71547;50.146;8.174;2023-07-31T12:49:36;21.90;99.90
1778;DHT22;71547;50.146;8.174;2023-07-31T12:52:04;21.80;99.90
1778;DHT22;71547;50.146;8.174;2023-07-31T12:54:33;21.40;99.90
1778;DHT22;71547;50.146;8.174;2023-07-31T12:57:03;21.10;99.90
1778;DHT22;71547;50.146;8.174;2023-07-31T12:59:31;20.80;99.90
1778;DHT22;71547;50.146;8.174;2023-07-31T13:02:01;20.90;99.90
1778;DHT22;71547;50.146;8.174;2023-07-31T13:04:28;21.00;99.90
1778;DHT22;71547;50.146;8.174;2023-07-31T13:06:56;21.00;99.90
1778;DHT22;71547;50.146;8.174;2023-07-31T13:09:26;21.10;99.90
1778;DHT22;71547;50.146;8.174;2023-07-31T13:11:54;21.10;99.90
1778;DHT22;71547;50.146;8.174;2023-07-31T13:14:22;21.20;99.90
1778;DHT22;71547;50.146;8.174;2023-07-31T13:16:50;21.50;99.90
1778;DHT22;71547;50.146;8.174;2023-07-31T13:19:22;21.50;99.90
1778;DHT22;71547;50.146;8.174;2023-07-31T13:21:49;21.40;99.90
1778;DHT22;71547;50.146;8.174;2023-07-31T13:24:17;21.40;99.90
1778;DHT22;71547;50.146;8.174;2023-07-31T13:26:44;21.20;99.90
1778;DHT22;71547;50.146;8.174;2023-07-31T13:29:12;21.10;99.90
1778;DHT22;71547;50.146;8.174;2023-07-31T13:31:40;21.10;99.90
1778;DHT22;71547;50.146;8.174;2023-07-31T13:34:07;21.10;99.90
1778;DHT22;71547;50.146;8.174;2023-07-31T13:36:36;21.00;99.90
1778;DHT22;71547;50.146;8.174;2023-07-31T13:39:05;21.00;99.90
1778;DHT22;71547;50.146;8.174;2023-07-31T13:41:33;20.80;99.90
1778;DHT22;71547;50.146;8.174;2023-07-31T13:44:03;20.60;99.90
1778;DHT22;71547;50.146;8.174;2023-07-31T13:46:32;20.50;99.90
1778;DHT22;71547;50.146;8.174;2023-07-31T13:49:00;20.50;99.90
1778;DHT22;71547;50.146;8.174;2023-07-31T13:51:28;20.30;99.90
1778;DHT22;71547;50.146;8.174;2023-07-31T13:53:57;20.20;99.90
1778;DHT22;71547;50.146;8.174;2023-07-31T13:56:24;20.30;99.90
1778;DHT22;71547;50.146;8.174;2023-07-31T13:58:55;20.40;99.90
1778;DHT22;71547;50.146;8.174;2023-07-31T14:01:25;20.20;99.90
1778;DHT22;71547;50.146;8.174;2023-07-31T14:03:52;20.10;99.90
1778;DHT22;71547;50.146;8.174;2023-07-31T14:06:22;20.30;99.90
1778;DHT22;71547;50.146;8.174;2023-07-31T14:08:50;20.30;99.90
1778;DHT22;71547;50.146;8.174;2023-07-31T14:11:19;20.30;99.90
1778;DHT22;71547;50.146;8.174;2023-07-31T14:13:47;20.20;99.90
1778;DHT22;71547;50.146;8.174;2023-07-31T14:16:14;20.30;99.90
1778;DHT22;71547;50.146;8.174;2023-07-31T14:18:42;20.20;99.90
1778;DHT22;71547;50.146;8.174;2023-07-31T14:21:10;20.30;99.90
1778;DHT22;71547;50.146;8.174;2023-07-31T14:23:38;20.50;99.90
1778;DHT22;71547;50.146;8.174;2023-07-31T14:26:05;20.70;99.90
1778;DHT22;71547;50.146;8.174;2023-07-31T14:28:37;20.70;99.90
1778;DHT22;71547;50.146;8.174;2023-07-31T14:31:05;20.80;99.90
1778;DHT22;71547;50.146;8.174;2023-07-31T14:33:33;20.90;99.90
1778;DHT22;71547;50.146;8.174;2023-07-31T14:36:01;20.70;99.90
1778;DHT22;71547;50.146;8.174;2023-07-31T14:38:29;20.70;99.90
1778;DHT22;71547;50.146;8.174;2023-07-31T14:41:00;20.70;99.90
1778;DHT22;71547;50.146;8.174;2023-07-31T14:43:28;20.60;99.90
1778;DHT22;71547;50.146;8.174;2023-07-31T14:45:57;20.60;99.90
1778;DHT22;71547;50.146;8.174;2023-07-31T14:48:27;20.60;99.90
1778;DHT22;71547;50.146;8.174;2023-07-31T14:50:56;20.70;99.90
1778;DHT22;71547;50.146;8.174;2023-07-31T14:53:24;20.70;99.90
1778;DHT22;71547;50.146;8.174;2023-07-31T14:55:52;20.60;99.90
1778;DHT22;71547;50.146;8.174;2023-07-31T14:58:19;20.40;99.90
1778;DHT22;71547;50.146;8.174;2023-07-31T15:00:51;20.30;99.90
1778;DHT22;71547;50.146;8.174;2023-07-31T15:03:20;20.30;99.90
1778;DHT22;71547;50.146;8.174;2023-07-31T15:05:48;20.30;99.90
1778;DHT22;71547;50.146;8.174;2023-07-31T15:08:15;20.20;99.90
1778;DHT22;71547;50.146;8.174;2023-07-31T15:10:46;20.10;99.90
1778;DHT22;71547;50.146;8.174;2023-07-31T15:13:13;20.10;99.90
1778;DHT22;71547;50.146;8.174;2023-07-31T15:15:41;20.10;99.90
1778;DHT22;71547;50.146;8.174;2023-07-31T15:18:08;19.80;99.90
1778;DHT22;71547;50.146;8.174;2023-07-31T15:20:38;19.90;99.90
1778;DHT22;71547;50.146;8.174;2023-07-31T15:23:05;20.00;99.90
1778;DHT22;71547;50.146;8.174;2023-07-31T15:25:36;20.10;99.90
1778;DHT22;71547;50.146;8.174;2023-07-31T15:28:04;20.30;99.90
1778;DHT22;71547;50.146;8.174;2023-07-31T15:30:35;20.20;99.90
1778;DHT22;71547;50.146;8.174;2023-07-31T15:33:05;20.20;99.90
1778;DHT22;71547;50.146;8.174;2023-07-31T15:35:33;19.90;99.90
1778;DHT22;71547;50.146;8.174;2023-07-31T15:38:05;19.70;99.90
1778;DHT22;71547;50.146;8.174;2023-07-31T15:40:37;19.50;99.90
1778;DHT22;71547;50.146;8.174;2023-07-31T15:43:05;19.30;99.90
1778;DHT22;71547;50.146;8.174;2023-07-31T15:45:33;19.20;99.90
1778;DHT22;71547;50.146;8.174;2023-07-31T15:48:04;19.00;99.90
1778;DHT22;71547;50.146;8.174;2023-07-31T15:50:32;19.20;99.90
1778;DHT22;71547;50.146;8.174;2023-07-31T15:53:19;19.20;99.90
1778;DHT22;71547;50.146;8.174;2023-07-31T15:55:48;18.80;99.90
1778;DHT22;71547;50.146;8.174;2023-07-31T15:58:15;18.80;99.90